sensor_id;sensor_type;location;lat;lon;timestamp;pressure;altitude;pressure_sealevel;temperature;humidity
4528;BME280;62320;51.520;6.818;2023-01-28T00:00:58;102392.47;;;3.43;92.10
4528;BME280;62320;51.520;6.818;2023-01-28T00:11:05;102398.19;;;3.39;92.37
4528;BME280;62320;51.520;6.818;2023-01-28T00:21:10;102386.22;;;3.38;92.14
4528;BME280;62320;51.520;6.818;2023-01-28T00:31:22;102404.75;;;3.34;91.85
4528;BME280;62320;51.520;6.818;2023-01-28T00:41:27;102399.16;;;3.10;90.78
4528;BME280;62320;51.520;6.818;2023-01-28T00:51:29;102396.66;;;3.12;91.42
4528;BME280;62320;51.520;6.818;2023-01-28T01:01:31;102398.81;;;3.04;90.95
4528;BME280;62320;51.520;6.818;2023-01-28T01:11:33;102403.75;;;3.01;90.32
4528;BME280;62320;51.520;6.818;2023-01-28T01:21:35;102398.41;;;2.67;88.04
4528;BME280;62320;51.520;6.818;2023-01-28T01:31:36;102408.69;;;2.54;89.43
4528;BME280;62320;51.520;6.818;2023-01-28T01:41:38;102421.94;;;2.34;88.27
4528;BME280;62320;51.520;6.818;2023-01-28T01:51:40;102422.97;;;2.23;88.57
4528;BME280;62320;51.520;6.818;2023-01-28T02:01:42;102440.53;;;2.04;88.23
4528;BME280;62320;51.520;6.818;2023-01-28T02:11:46;102436.53;;;2.22;89.06
4528;BME280;62320;51.520;6.818;2023-01-28T02:21:53;102448.59;;;2.25;87.94
4528;BME280;62320;51.520;6.818;2023-01-28T02:42:23;102437.44;;;2.37;91.07
4528;BME280;62320;51.520;6.818;2023-01-28T02:52:48;102436.13;;;2.44;91.06
4528;BME280;62320;51.520;6.818;2023-01-28T03:13:17;102420.13;;;2.46;90.91
4528;BME280;62320;51.520;6.818;2023-01-28T03:23:52;102421.78;;;2.31;88.74
4528;BME280;62320;51.520;6.818;2023-01-28T03:34:13;102415.72;;;2.29;89.49
4528;BME280;62320;51.520;6.818;2023-01-28T03:44:34;102432.47;;;2.11;86.15
4528;BME280;62320;51.520;6.818;2023-01-28T03:54:53;102443.84;;;2.03;85.92
4528;BME280;62320;51.520;6.818;2023-01-28T04:04:55;102445.94;;;2.23;88.34
4528;BME280;62320;51.520;6.818;2023-01-28T04:14:59;102450.41;;;2.12;86.80
4528;BME280;62320;51.520;6.818;2023-01-28T04:25:00;102462.94;;;2.23;87.92
4528;BME280;62320;51.520;6.818;2023-01-28T04:35:02;102465.50;;;2.23;87.25
4528;BME280;62320;51.520;6.818;2023-01-28T04:45:04;102456.16;;;2.23;88.58
4528;BME280;62320;51.520;6.818;2023-01-28T04:55:06;102447.66;;;2.09;85.31
4528;BME280;62320;51.520;6.818;2023-01-28T05:05:08;102447.63;;;1.95;86.30
4528;BME280;62320;51.520;6.818;2023-01-28T05:15:10;102451.19;;;1.84;85.98
4528;BME280;62320;51.520;6.818;2023-01-28T05:25:12;102458.97;;;2.00;87.34
4528;BME280;62320;51.520;6.818;2023-01-28T05:35:13;102459.38;;;2.06;88.57
4528;BME280;62320;51.520;6.818;2023-01-28T05:45:15;102470.31;;;1.77;85.22
4528;BME280;62320;51.520;6.818;2023-01-28T05:55:18;102492.69;;;1.68;84.44
4528;BME280;62320;51.520;6.818;2023-01-28T06:05:21;102484.63;;;1.75;85.21
4528;BME280;62320;51.520;6.818;2023-01-28T06:15:22;102480.09;;;1.84;85.39
4528;BME280;62320;51.520;6.818;2023-01-28T06:25:24;102481.66;;;1.95;85.90
4528;BME280;62320;51.520;6.818;2023-01-28T06:35:25;102484.75;;;1.77;84.99
4528;BME280;62320;51.520;6.818;2023-01-28T06:45:27;102485.72;;;1.79;86.55
4528;BME280;62320;51.520;6.818;2023-01-28T06:55:28;102495.38;;;1.57;84.59
4528;BME280;62320;51.520;6.818;2023-01-28T07:05:30;102500.56;;;1.58;85.81
4528;BME280;62320;51.520;6.818;2023-01-28T07:15:32;102496.53;;;1.49;84.18
4528;BME280;62320;51.520;6.818;2023-01-28T07:25:33;102491.22;;;1.45;84.17
4528;BME280;62320;51.520;6.818;2023-01-28T07:35:35;102509.19;;;1.47;87.16
4528;BME280;62320;51.520;6.818;2023-01-28T07:45:36;102507.50;;;1.34;84.91
4528;BME280;62320;51.520;6.818;2023-01-28T07:55:38;102526.00;;;1.19;82.87
4528;BME280;62320;51.520;6.818;2023-01-28T08:05:43;102539.84;;;1.22;84.42
4528;BME280;62320;51.520;6.818;2023-01-28T08:15:45;102538.88;;;1.20;83.51
4528;BME280;62320;51.520;6.818;2023-01-28T08:25:47;102547.28;;;1.19;83.38
4528;BME280;62320;51.520;6.818;2023-01-28T08:35:49;102576.06;;;1.18;83.62
4528;BME280;62320;51.520;6.818;2023-01-28T08:45:51;102596.88;;;1.24;83.04
4528;BME280;62320;51.520;6.818;2023-01-28T08:55:53;102616.91;;;1.31;84.37
4528;BME280;62320;51.520;6.818;2023-01-28T09:06:02;102626.28;;;1.32;83.62
4528;BME280;62320;51.520;6.818;2023-01-28T09:16:04;102631.75;;;1.25;81.66
4528;BME280;62320;51.520;6.818;2023-01-28T09:26:06;102629.00;;;1.60;85.69
4528;BME280;62320;51.520;6.818;2023-01-28T09:36:10;102644.09;;;1.57;84.24
4528;BME280;62320;51.520;6.818;2023-01-28T09:46:13;102644.81;;;1.68;85.31
4528;BME280;62320;51.520;6.818;2023-01-28T09:56:24;102635.16;;;1.51;82.06
4528;BME280;62320;51.520;6.818;2023-01-28T10:06:49;102647.16;;;1.78;84.47
4528;BME280;62320;51.520;6.818;2023-01-28T10:27:15;102627.94;;;1.83;83.06
4528;BME280;62320;51.520;6.818;2023-01-28T10:37:17;102629.13;;;2.01;84.81
4528;BME280;62320;51.520;6.818;2023-01-28T10:47:42;102652.25;;;1.78;80.52
4528;BME280;62320;51.520;6.818;2023-01-28T10:57:44;102655.91;;;2.07;84.66
4528;BME280;62320;51.520;6.818;2023-01-28T11:07:46;102666.88;;;1.93;80.94
4528;BME280;62320;51.520;6.818;2023-01-28T11:17:56;102665.31;;;1.82;80.15
4528;BME280;62320;51.520;6.818;2023-01-28T11:28:00;102654.44;;;1.85;81.58
4528;BME280;62320;51.520;6.818;2023-01-28T11:38:02;102649.31;;;1.72;80.69
4528;BME280;62320;51.520;6.818;2023-01-28T11:48:38;102640.31;;;1.90;82.82
4528;BME280;62320;51.520;6.818;2023-01-28T11:59:01;102617.81;;;1.71;79.17
4528;BME280;62320;51.520;6.818;2023-01-28T12:19:36;102607.75;;;1.86;79.05
4528;BME280;62320;51.520;6.818;2023-01-28T12:29:47;102574.06;;;2.17;84.03
4528;BME280;62320;51.520;6.818;2023-01-28T12:50:17;102504.56;;;2.22;83.47
4528;BME280;62320;51.520;6.818;2023-01-28T13:00:36;102536.84;;;2.21;82.81
4528;BME280;62320;51.520;6.818;2023-01-28T13:10:42;102542.75;;;2.07;79.24
4528;BME280;62320;51.520;6.818;2023-01-28T13:20:50;102537.44;;;2.17;80.26
4528;BME280;62320;51.520;6.818;2023-01-28T13:31:04;102548.84;;;2.22;82.96
4528;BME280;62320;51.520;6.818;2023-01-28T13:41:06;102544.50;;;2.21;79.69
4528;BME280;62320;51.520;6.818;2023-01-28T13:51:32;102553.53;;;2.29;83.55
4528;BME280;62320;51.520;6.818;2023-01-28T14:22:19;102507.63;;;2.03;80.77
4528;BME280;62320;51.520;6.818;2023-01-28T14:32:25;102504.31;;;2.04;82.14
4528;BME280;62320;51.520;6.818;2023-01-28T14:42:36;102487.56;;;1.94;81.96
4528;BME280;62320;51.520;6.818;2023-01-28T14:52:46;102498.34;;;1.90;82.32
4528;BME280;62320;51.520;6.818;2023-01-28T15:02:50;102505.72;;;1.86;83.26
4528;BME280;62320;51.520;6.818;2023-01-28T15:13:08;102521.59;;;1.82;84.01
4528;BME280;62320;51.520;6.818;2023-01-28T15:23:14;102547.81;;;1.79;84.50
4528;BME280;62320;51.520;6.818;2023-01-28T15:33:20;102551.91;;;1.77;84.62
4528;BME280;62320;51.520;6.818;2023-01-28T15:43:28;102564.66;;;1.64;84.86
4528;BME280;62320;51.520;6.818;2023-01-28T15:53:34;102560.53;;;1.53;84.10
4528;BME280;62320;51.520;6.818;2023-01-28T16:03:38;102580.84;;;1.38;84.05
4528;BME280;62320;51.520;6.818;2023-01-28T16:13:41;102597.94;;;1.28;84.56
4528;BME280;62320;51.520;6.818;2023-01-28T16:23:50;102597.94;;;1.15;84.79
4528;BME280;62320;51.520;6.818;2023-01-28T16:33:52;102596.78;;;0.98;85.12
4528;BME280;62320;51.520;6.818;2023-01-28T16:43:53;102618.00;;;0.86;85.43
4528;BME280;62320;51.520;6.818;2023-01-28T16:53:56;102610.09;;;0.69;85.15
4528;BME280;62320;51.520;6.818;2023-01-28T17:03:58;102594.44;;;0.52;85.30
4528;BME280;62320;51.520;6.818;2023-01-28T17:14:00;102586.94;;;0.42;86.11
4528;BME280;62320;51.520;6.818;2023-01-28T17:24:03;102578.75;;;0.34;85.80
4528;BME280;62320;51.520;6.818;2023-01-28T17:34:04;102586.00;;;0.17;86.31
4528;BME280;62320;51.520;6.818;2023-01-28T17:44:10;102596.63;;;0.11;87.26
4528;BME280;62320;51.520;6.818;2023-01-28T17:54:12;102629.47;;;-0.15;86.79
4528;BME280;62320;51.520;6.818;2023-01-28T18:04:13;102639.84;;;-0.24;87.26
4528;BME280;62320;51.520;6.818;2023-01-28T18:14:15;102625.91;;;-0.29;88.10
4528;BME280;62320;51.520;6.818;2023-01-28T18:24:16;102629.00;;;-0.44;87.94
4528;BME280;62320;51.520;6.818;2023-01-28T18:34:18;102643.00;;;-0.49;89.00
4528;BME280;62320;51.520;6.818;2023-01-28T18:44:20;102662.00;;;-0.56;89.11
4528;BME280;62320;51.520;6.818;2023-01-28T18:54:23;102655.28;;;-0.55;89.94
4528;BME280;62320;51.520;6.818;2023-01-28T19:04:25;102661.59;;;-0.50;89.98
4528;BME280;62320;51.520;6.818;2023-01-28T19:14:26;102660.09;;;-0.70;89.54
4528;BME280;62320;51.520;6.818;2023-01-28T19:24:28;102656.34;;;-0.75;90.05
4528;BME280;62320;51.520;6.818;2023-01-28T19:34:29;102661.19;;;-0.78;90.08
4528;BME280;62320;51.520;6.818;2023-01-28T19:44:31;102664.22;;;-0.94;90.52
4528;BME280;62320;51.520;6.818;2023-01-28T19:54:34;102691.53;;;-1.01;90.83
4528;BME280;62320;51.520;6.818;2023-01-28T20:04:35;102685.50;;;-1.13;91.15
4528;BME280;62320;51.520;6.818;2023-01-28T20:14:41;102693.19;;;-1.23;91.27
4528;BME280;62320;51.520;6.818;2023-01-28T20:24:44;102666.53;;;-1.18;90.92
4528;BME280;62320;51.520;6.818;2023-01-28T20:34:46;102667.81;;;-1.23;91.37
4528;BME280;62320;51.520;6.818;2023-01-28T20:44:47;102648.00;;;-1.39;90.84
4528;BME280;62320;51.520;6.818;2023-01-28T20:54:49;102634.25;;;-1.53;91.38
4528;BME280;62320;51.520;6.818;2023-01-28T21:04:50;102626.41;;;-1.66;92.43
4528;BME280;62320;51.520;6.818;2023-01-28T21:14:52;102616.28;;;-1.66;91.98
4528;BME280;62320;51.520;6.818;2023-01-28T21:24:53;102612.78;;;-1.78;92.25
4528;BME280;62320;51.520;6.818;2023-01-28T21:34:56;102617.38;;;-1.84;92.62
4528;BME280;62320;51.520;6.818;2023-01-28T21:44:57;102612.72;;;-1.89;93.13
4528;BME280;62320;51.520;6.818;2023-01-28T21:54:59;102621.31;;;-1.87;92.02
4528;BME280;62320;51.520;6.818;2023-01-28T22:05:00;102634.88;;;-1.87;93.55
4528;BME280;62320;51.520;6.818;2023-01-28T22:15:02;102635.44;;;-2.01;91.73
4528;BME280;62320;51.520;6.818;2023-01-28T22:25:04;102641.41;;;-2.00;93.79
4528;BME280;62320;51.520;6.818;2023-01-28T22:35:06;102648.00;;;-2.02;91.43
4528;BME280;62320;51.520;6.818;2023-01-28T22:45:08;102645.22;;;-2.16;92.43
4528;BME280;62320;51.520;6.818;2023-01-28T22:55:09;102648.00;;;-2.12;91.61
4528;BME280;62320;51.520;6.818;2023-01-28T23:05:11;102627.16;;;-2.30;92.11
4528;BME280;62320;51.520;6.818;2023-01-28T23:15:12;102615.22;;;-2.31;93.43
4528;BME280;62320;51.520;6.818;2023-01-28T23:25:32;102621.31;;;-2.29;92.37
4528;BME280;62320;51.520;6.818;2023-01-28T23:35:34;102606.00;;;-2.31;94.34
4528;BME280;62320;51.520;6.818;2023-01-28T23:45:36;102578.91;;;-2.42;92.90
4528;BME280;62320;51.520;6.818;2023-01-28T23:55:40;102579.06;;;-2.50;93.01
